createdAt,value
2023-08-08T00:00:11.172Z,17.86
2023-08-08T00:03:15.306Z,17.89
2023-08-08T00:06:17.655Z,17.83
2023-08-08T00:09:19.911Z,17.85
2023-08-08T00:12:22.235Z,17.92
2023-08-08T00:15:24.629Z,17.81
2023-08-08T00:18:26.951Z,17.84
2023-08-08T00:21:29.258Z,17.90
2023-08-08T00:24:31.585Z,17.89
2023-08-08T00:27:33.907Z,17.86
2023-08-08T00:30:36.464Z,17.90
2023-08-08T00:33:39.963Z,17.90
2023-08-08T00:36:42.223Z,17.93
2023-08-08T00:39:47.160Z,17.93
2023-08-08T00:42:49.410Z,17.90
2023-08-08T00:45:51.996Z,17.88
2023-08-08T00:48:54.444Z,17.94
2023-08-08T00:51:57.104Z,17.93
2023-08-08T00:55:00.176Z,17.95
2023-08-08T00:58:02.438Z,17.93
2023-08-08T01:01:05.127Z,17.92
2023-08-08T01:04:08.118Z,17.90
2023-08-08T01:07:24.469Z,17.92
2023-08-08T01:10:29.825Z,17.89
2023-08-08T01:13:33.058Z,17.85
2023-08-08T01:16:35.479Z,17.82
2023-08-08T01:19:37.914Z,17.83
2023-08-08T01:23:03.211Z,17.83
2023-08-08T01:26:05.513Z,17.79
2023-08-08T01:29:07.845Z,17.79
2023-08-08T01:32:11.771Z,17.78
2023-08-08T01:35:14.217Z,17.77
2023-08-08T01:38:20.886Z,17.74
2023-08-08T01:41:24.137Z,17.74
2023-08-08T01:44:27.034Z,17.68
2023-08-08T01:47:29.442Z,17.69
2023-08-08T01:50:32.861Z,17.64
2023-08-08T01:53:35.146Z,17.68
2023-08-08T01:56:40.547Z,17.67
2023-08-08T01:59:42.840Z,17.67
2023-08-08T02:02:45.351Z,17.67
2023-08-08T02:05:47.937Z,17.64
2023-08-08T02:08:50.683Z,17.59
2023-08-08T02:11:53.025Z,17.58
2023-08-08T02:14:55.631Z,17.58
2023-08-08T02:17:57.983Z,17.50
2023-08-08T02:21:00.587Z,17.48
2023-08-08T02:24:03.142Z,17.50
2023-08-08T02:27:05.754Z,17.47
2023-08-08T02:30:08.657Z,17.48
2023-08-08T02:33:11.585Z,17.47
2023-08-08T02:36:14.066Z,17.43
2023-08-08T02:39:16.708Z,17.38
2023-08-08T02:42:19.118Z,17.40
2023-08-08T02:45:21.686Z,17.37
2023-08-08T02:48:24.214Z,17.43
2023-08-08T02:51:26.680Z,17.43
2023-08-08T02:54:29.206Z,17.44
2023-08-08T02:57:31.480Z,17.41
2023-08-08T03:00:33.938Z,17.36
2023-08-08T03:03:37.664Z,17.37
2023-08-08T03:06:40.684Z,17.36
2023-08-08T03:09:43.286Z,17.32
2023-08-08T03:12:47.211Z,17.31
2023-08-08T03:15:51.339Z,17.30
2023-08-08T03:18:54.000Z,17.30
2023-08-08T03:21:56.675Z,17.30
2023-08-08T03:24:59.500Z,17.30
2023-08-08T03:28:01.937Z,17.31
2023-08-08T03:31:04.445Z,17.27
2023-08-08T03:34:08.878Z,17.26
2023-08-08T03:37:11.730Z,17.22
2023-08-08T03:40:17.233Z,17.18
2023-08-08T03:43:19.625Z,17.15
2023-08-08T03:46:24.411Z,17.14
2023-08-08T03:49:26.764Z,17.10
2023-08-08T03:52:29.084Z,17.02
2023-08-08T03:55:31.376Z,16.96
2023-08-08T03:58:33.655Z,16.90
2023-08-08T04:01:35.959Z,16.90
2023-08-08T04:04:39.912Z,16.90
2023-08-08T04:07:42.351Z,16.90
2023-08-08T04:10:44.986Z,16.98
2023-08-08T04:13:47.453Z,17.11
2023-08-08T04:16:49.966Z,17.26
2023-08-08T04:19:52.280Z,17.40
2023-08-08T04:22:54.536Z,17.52
2023-08-08T04:25:56.771Z,17.66
2023-08-08T04:28:59.157Z,17.79
2023-08-08T04:32:01.774Z,17.96
2023-08-08T04:35:04.282Z,18.08
2023-08-08T04:38:06.502Z,18.22
2023-08-08T04:41:08.827Z,18.25
2023-08-08T04:44:11.081Z,18.28
2023-08-08T04:47:13.482Z,18.38
2023-08-08T04:50:15.902Z,18.51
2023-08-08T04:53:18.239Z,18.57
2023-08-08T04:56:20.551Z,18.58
2023-08-08T04:59:22.789Z,18.73
2023-08-08T05:02:25.281Z,18.93
2023-08-08T05:05:27.530Z,19.04
2023-08-08T05:08:29.796Z,19.16
2023-08-08T05:11:32.049Z,19.34
2023-08-08T05:14:34.333Z,19.56
2023-08-08T05:17:36.672Z,19.76
2023-08-08T05:20:38.975Z,19.99
2023-08-08T05:23:41.632Z,20.12
2023-08-08T05:26:43.904Z,20.14
2023-08-08T05:29:46.170Z,20.34
2023-08-08T05:32:48.520Z,20.54
2023-08-08T05:35:50.904Z,20.71
2023-08-08T05:38:53.232Z,20.87
2023-08-08T05:41:55.524Z,20.91
2023-08-08T05:44:57.811Z,21.08
2023-08-08T05:48:01.607Z,21.21
2023-08-08T05:51:06.091Z,21.41
2023-08-08T05:54:08.429Z,21.55
2023-08-08T05:57:10.681Z,21.69
2023-08-08T06:00:13.495Z,21.88
2023-08-08T06:03:15.743Z,21.99
2023-08-08T06:06:19.527Z,22.23
2023-08-08T06:09:21.719Z,22.36
2023-08-08T06:12:23.864Z,22.49
2023-08-08T06:15:26.159Z,22.78
2023-08-08T06:18:28.424Z,22.90
2023-08-08T06:21:30.866Z,23.19
2023-08-08T06:24:33.368Z,23.42
2023-08-08T06:27:35.707Z,23.60
2023-08-08T06:30:38.058Z,24.32
2023-08-08T06:33:40.329Z,25.70
2023-08-08T06:36:42.727Z,27.15
2023-08-08T06:39:45.035Z,28.41
2023-08-08T06:42:47.353Z,29.86
2023-08-08T06:45:49.620Z,31.17
2023-08-08T06:48:54.146Z,32.58
2023-08-08T06:51:56.588Z,33.41
2023-08-08T06:54:58.947Z,33.09
2023-08-08T06:58:01.085Z,32.86
2023-08-08T07:01:03.981Z,33.18
2023-08-08T07:04:06.699Z,33.48
2023-08-08T07:07:09.222Z,32.84
2023-08-08T07:10:12.904Z,33.02
2023-08-08T07:13:16.448Z,33.47
2023-08-08T07:16:18.848Z,33.56
2023-08-08T07:19:21.234Z,33.34
2023-08-08T07:22:23.657Z,32.42
2023-08-08T07:25:25.815Z,31.59
2023-08-08T07:28:28.192Z,31.27
2023-08-08T07:31:30.423Z,30.96
2023-08-08T07:34:33.414Z,30.38
2023-08-08T07:37:36.908Z,29.92
2023-08-08T07:40:41.849Z,29.41
2023-08-08T07:43:44.098Z,29.64
2023-08-08T07:46:46.397Z,30.19
2023-08-08T07:49:48.600Z,30.17
2023-08-08T07:52:50.829Z,30.74
2023-08-08T07:55:53.048Z,31.51
2023-08-08T07:58:55.369Z,32.30
2023-08-08T08:01:57.651Z,32.79
2023-08-08T08:04:59.892Z,33.34
2023-08-08T08:08:02.093Z,33.70
2023-08-08T08:11:04.289Z,33.26
2023-08-08T08:14:06.504Z,33.37
2023-08-08T08:17:08.765Z,33.42
2023-08-08T08:20:13.106Z,33.58
2023-08-08T08:23:15.563Z,34.27
2023-08-08T08:26:17.896Z,34.70
2023-08-08T08:29:20.161Z,33.94
2023-08-08T08:32:22.343Z,34.45
2023-08-08T08:35:24.581Z,34.35
2023-08-08T08:38:26.769Z,32.67
2023-08-08T08:41:29.443Z,30.96
2023-08-08T08:44:33.066Z,30.01
2023-08-08T08:47:37.458Z,29.18
2023-08-08T08:50:40.934Z,28.58
2023-08-08T08:53:44.413Z,28.08
2023-08-08T08:56:46.813Z,27.62
2023-08-08T08:59:49.204Z,27.41
2023-08-08T09:02:51.473Z,27.18
2023-08-08T09:05:55.658Z,26.93
2023-08-08T09:09:07.331Z,26.69
2023-08-08T09:12:19.765Z,26.68
2023-08-08T09:15:22.211Z,26.57
2023-08-08T09:18:25.799Z,26.45
2023-08-08T09:21:28.418Z,26.35
2023-08-08T09:24:30.636Z,26.27
2023-08-08T09:27:33.258Z,26.38
2023-08-08T09:30:36.027Z,26.40
2023-08-08T09:33:39.974Z,26.35
2023-08-08T09:36:42.229Z,26.29
2023-08-08T09:39:44.496Z,26.15
2023-08-08T09:42:46.833Z,26.10
2023-08-08T09:45:49.073Z,25.97
2023-08-08T09:48:51.382Z,25.92
2023-08-08T09:51:53.537Z,25.88
2023-08-08T09:54:56.250Z,25.83
2023-08-08T09:57:59.875Z,25.75
2023-08-08T10:01:02.208Z,25.66
2023-08-08T10:04:04.884Z,25.51
2023-08-08T10:07:07.241Z,25.40
2023-08-08T10:10:10.900Z,25.33
2023-08-08T10:13:23.545Z,25.19
2023-08-08T10:16:25.996Z,25.18
2023-08-08T10:19:28.193Z,25.03
2023-08-08T10:22:30.390Z,25.09
2023-08-08T10:25:32.792Z,25.03
2023-08-08T10:28:35.422Z,25.02
2023-08-08T10:31:38.198Z,25.02
2023-08-08T10:34:42.639Z,25.00
2023-08-08T10:37:55.362Z,24.94
2023-08-08T10:40:59.536Z,24.83
2023-08-08T10:44:01.925Z,24.81
2023-08-08T10:47:04.521Z,24.75
2023-08-08T10:50:08.665Z,24.72
2023-08-08T10:53:11.457Z,24.63
2023-08-08T10:56:15.275Z,24.57
2023-08-08T10:59:22.171Z,24.57
2023-08-08T11:02:25.967Z,24.48
2023-08-08T11:05:35.272Z,24.43
2023-08-08T11:08:41.388Z,24.35
2023-08-08T11:11:44.971Z,24.23
2023-08-08T11:14:47.221Z,24.06
2023-08-08T11:17:50.522Z,24.10
2023-08-08T11:20:55.613Z,24.06
2023-08-08T11:24:06.094Z,24.08
2023-08-08T11:27:08.379Z,24.01
2023-08-08T11:30:11.063Z,23.99
2023-08-08T11:33:17.177Z,24.00
2023-08-08T11:36:42.084Z,23.91
2023-08-08T11:39:44.662Z,23.71
2023-08-08T11:42:47.811Z,23.64
2023-08-08T11:45:50.534Z,23.68
2023-08-08T11:48:52.876Z,23.74
2023-08-08T11:51:57.006Z,23.73
2023-08-08T11:55:01.735Z,23.70
2023-08-08T11:58:04.189Z,23.63
2023-08-08T12:01:06.645Z,23.55
2023-08-08T12:04:09.702Z,23.64
2023-08-08T12:07:12.026Z,23.69
2023-08-08T12:10:17.899Z,23.68
2023-08-08T12:13:23.786Z,23.74
2023-08-08T12:16:34.902Z,23.74
2023-08-08T12:19:37.290Z,23.53
2023-08-08T12:22:39.583Z,23.61
2023-08-08T12:25:43.677Z,23.58
2023-08-08T12:28:45.957Z,23.57
2023-08-08T12:31:48.410Z,23.50
2023-08-08T12:34:51.405Z,23.48
2023-08-08T12:37:53.751Z,23.48
2023-08-08T12:40:56.057Z,23.50
2023-08-08T12:43:58.360Z,23.51
2023-08-08T12:47:00.838Z,23.51
2023-08-08T12:50:04.290Z,23.43
2023-08-08T12:53:06.639Z,23.45
2023-08-08T12:56:09.212Z,23.49
2023-08-08T12:59:11.890Z,23.48
2023-08-08T13:02:14.363Z,23.56
2023-08-08T13:05:16.611Z,23.61
2023-08-08T13:08:19.130Z,23.51
2023-08-08T13:11:21.242Z,23.60
2023-08-08T13:14:23.435Z,23.65
2023-08-08T13:17:25.674Z,23.71
2023-08-08T13:20:27.974Z,23.71
2023-08-08T13:23:30.386Z,23.77
2023-08-08T13:26:32.659Z,23.80
2023-08-08T13:29:35.071Z,23.79
2023-08-08T13:32:37.493Z,23.78
2023-08-08T13:35:39.850Z,23.67
2023-08-08T13:38:42.138Z,23.58
2023-08-08T13:41:44.386Z,23.44
2023-08-08T13:44:46.659Z,23.43
2023-08-08T13:47:50.362Z,23.44
2023-08-08T13:50:54.066Z,23.38
2023-08-08T13:53:56.382Z,23.35
2023-08-08T13:56:58.642Z,23.32
2023-08-08T14:00:00.876Z,23.35
2023-08-08T14:03:03.725Z,23.34
2023-08-08T14:06:07.270Z,23.37
2023-08-08T14:09:11.158Z,23.33
2023-08-08T14:12:13.561Z,23.37
2023-08-08T14:15:15.775Z,23.28
2023-08-08T14:18:18.076Z,23.30
2023-08-08T14:21:20.689Z,23.22
2023-08-08T14:24:22.814Z,23.18
2023-08-08T14:27:25.028Z,23.13
2023-08-08T14:30:28.598Z,23.01
2023-08-08T14:33:30.926Z,22.94
2023-08-08T14:36:33.213Z,22.92
2023-08-08T14:39:35.509Z,22.89
2023-08-08T14:42:37.894Z,22.90
2023-08-08T14:45:40.230Z,22.88
2023-08-08T14:48:42.597Z,22.90
2023-08-08T14:51:44.923Z,22.93
2023-08-08T14:54:47.199Z,22.90
2023-08-08T14:57:49.538Z,22.92
2023-08-08T15:00:51.863Z,22.99
2023-08-08T15:03:54.667Z,23.00
2023-08-08T15:06:56.910Z,22.99
2023-08-08T15:09:59.128Z,22.99
2023-08-08T15:13:02.365Z,22.97
2023-08-08T15:16:04.923Z,22.97
2023-08-08T15:19:07.346Z,22.96
2023-08-08T15:22:09.550Z,22.99
2023-08-08T15:25:11.861Z,23.03
2023-08-08T15:28:14.128Z,23.04
2023-08-08T15:31:17.761Z,22.83
2023-08-08T15:34:20.091Z,22.44
2023-08-08T15:37:22.417Z,21.99
2023-08-08T15:40:24.751Z,22.08
2023-08-08T15:43:27.057Z,22.04
2023-08-08T15:46:29.369Z,21.86
2023-08-08T15:49:31.649Z,21.96
2023-08-08T15:52:33.956Z,21.88
2023-08-08T15:55:36.254Z,21.88
2023-08-08T15:58:38.624Z,21.66
2023-08-08T16:01:40.925Z,21.72
2023-08-08T16:04:43.204Z,21.80
2023-08-08T16:07:45.592Z,22.02
2023-08-08T16:10:48.500Z,22.17
2023-08-08T16:13:50.946Z,21.94
2023-08-08T16:16:53.393Z,21.85
2023-08-08T16:19:55.680Z,21.92
2023-08-08T16:22:57.931Z,22.24
2023-08-08T16:26:00.263Z,21.97
2023-08-08T16:29:02.676Z,21.83
2023-08-08T16:32:05.172Z,21.81
2023-08-08T16:35:07.819Z,22.01
2023-08-08T16:38:13.138Z,22.14
2023-08-08T16:41:15.352Z,22.19
2023-08-08T16:44:17.677Z,22.29
2023-08-08T16:47:20.079Z,22.28
2023-08-08T16:50:22.758Z,22.24
2023-08-08T16:53:25.780Z,22.37
2023-08-08T16:56:28.929Z,22.43
2023-08-08T16:59:31.183Z,22.36
2023-08-08T17:02:33.499Z,22.38
2023-08-08T17:05:36.115Z,22.45
2023-08-08T17:08:38.224Z,22.39
2023-08-08T17:11:40.453Z,22.41
2023-08-08T17:14:42.794Z,22.44
2023-08-08T17:17:45.085Z,22.43
2023-08-08T17:20:47.576Z,22.48
2023-08-08T17:23:49.864Z,22.50
2023-08-08T17:26:52.089Z,22.55
2023-08-08T17:29:54.458Z,22.51
2023-08-08T17:32:56.767Z,22.51
2023-08-08T17:35:59.041Z,22.51
2023-08-08T17:39:01.412Z,22.49
2023-08-08T17:42:04.165Z,22.44
2023-08-08T17:45:06.894Z,22.39
2023-08-08T17:48:09.299Z,22.34
2023-08-08T17:51:11.699Z,22.28
2023-08-08T17:54:13.934Z,22.23
2023-08-08T17:57:16.475Z,22.16
2023-08-08T18:00:19.021Z,22.10
2023-08-08T18:03:21.604Z,22.10
2023-08-08T18:06:24.004Z,22.00
2023-08-08T18:09:29.125Z,21.98
2023-08-08T18:12:31.888Z,21.90
2023-08-08T18:15:37.481Z,21.84
2023-08-08T18:18:39.732Z,21.79
2023-08-08T18:21:42.017Z,21.74
2023-08-08T18:24:44.404Z,21.69
2023-08-08T18:27:46.763Z,21.64
2023-08-08T18:30:49.024Z,21.60
2023-08-08T18:34:00.959Z,21.53
2023-08-08T18:37:03.327Z,21.48
2023-08-08T18:40:07.229Z,21.43
2023-08-08T18:43:10.676Z,21.34
2023-08-08T18:46:13.609Z,21.34
2023-08-08T18:49:15.978Z,21.29
2023-08-08T18:52:18.258Z,21.23
2023-08-08T18:55:20.625Z,21.15
2023-08-08T18:58:22.970Z,21.08
2023-08-08T19:01:25.339Z,21.05
2023-08-08T19:04:27.704Z,20.99
2023-08-08T19:07:30.118Z,20.96
2023-08-08T19:10:32.477Z,20.95
2023-08-08T19:13:34.714Z,20.90
2023-08-08T19:16:37.463Z,20.80
2023-08-08T19:19:39.791Z,20.74
2023-08-08T19:22:42.086Z,20.69
2023-08-08T19:25:44.530Z,20.66
2023-08-08T19:28:48.764Z,20.58
2023-08-08T19:31:51.432Z,20.51
2023-08-08T19:34:53.856Z,20.45
2023-08-08T19:37:57.106Z,20.41
2023-08-08T19:40:59.629Z,20.37
2023-08-08T19:44:01.985Z,20.36
2023-08-08T19:47:04.736Z,20.33
2023-08-08T19:50:07.472Z,20.31
2023-08-08T19:53:09.691Z,20.25
2023-08-08T19:56:11.983Z,20.26
2023-08-08T19:59:14.346Z,20.26
2023-08-08T20:02:17.223Z,20.22
2023-08-08T20:05:19.659Z,20.19
2023-08-08T20:08:21.938Z,20.15
2023-08-08T20:11:24.331Z,20.09
2023-08-08T20:14:26.711Z,20.03
2023-08-08T20:17:29.006Z,19.97
2023-08-08T20:20:31.274Z,19.90
2023-08-08T20:23:33.519Z,19.88
2023-08-08T20:26:35.769Z,19.81
2023-08-08T20:29:38.021Z,19.75
2023-08-08T20:32:40.348Z,19.73
2023-08-08T20:35:42.663Z,19.70
2023-08-08T20:38:45.166Z,19.68
2023-08-08T20:41:47.459Z,19.65
2023-08-08T20:44:50.004Z,19.58
2023-08-08T20:47:52.298Z,19.55
2023-08-08T20:50:54.621Z,19.51
2023-08-08T20:53:56.938Z,19.44
2023-08-08T20:57:00.444Z,19.41
2023-08-08T21:00:03.801Z,19.32
2023-08-08T21:03:07.245Z,19.29
2023-08-08T21:06:09.625Z,19.28
2023-08-08T21:09:11.977Z,19.25
2023-08-08T21:12:15.477Z,19.26
2023-08-08T21:15:17.822Z,19.25
2023-08-08T21:18:20.666Z,19.24
2023-08-08T21:21:22.930Z,19.15
2023-08-08T21:24:25.789Z,19.09
2023-08-08T21:27:28.093Z,19.04
2023-08-08T21:30:30.464Z,19.03
2023-08-08T21:33:32.788Z,19.00
2023-08-08T21:36:35.097Z,18.94
2023-08-08T21:39:37.473Z,18.91
2023-08-08T21:42:39.738Z,18.84
2023-08-08T21:45:42.818Z,18.76
2023-08-08T21:48:45.124Z,18.68
2023-08-08T21:51:47.563Z,18.58
2023-08-08T21:54:50.054Z,18.51
2023-08-08T21:57:52.311Z,18.45
2023-08-08T22:00:54.814Z,18.43
2023-08-08T22:03:57.128Z,18.48
2023-08-08T22:06:59.683Z,18.46
2023-08-08T22:10:05.084Z,18.42
2023-08-08T22:13:09.082Z,18.44
2023-08-08T22:16:11.581Z,18.45
2023-08-08T22:19:13.909Z,18.45
2023-08-08T22:22:16.175Z,18.39
2023-08-08T22:25:20.012Z,18.28
2023-08-08T22:28:22.316Z,18.21
2023-08-08T22:31:25.035Z,18.14
2023-08-08T22:34:27.250Z,18.05
2023-08-08T22:37:29.383Z,18.06
2023-08-08T22:40:31.785Z,18.07
2023-08-08T22:43:34.703Z,18.12
2023-08-08T22:46:36.945Z,18.13
2023-08-08T22:49:39.166Z,18.16
2023-08-08T22:52:41.596Z,18.16
2023-08-08T22:55:43.889Z,18.16
2023-08-08T22:58:48.320Z,18.15
2023-08-08T23:01:50.746Z,18.15
2023-08-08T23:04:53.106Z,18.11
2023-08-08T23:07:55.540Z,18.10
2023-08-08T23:10:58.953Z,18.08
2023-08-08T23:14:01.292Z,18.04
2023-08-08T23:17:03.989Z,18.03
2023-08-08T23:20:07.260Z,18.04
2023-08-08T23:23:09.499Z,18.02
2023-08-08T23:26:12.848Z,17.99
2023-08-08T23:29:15.119Z,17.88
2023-08-08T23:32:17.358Z,17.79
2023-08-08T23:35:20.023Z,17.76
2023-08-08T23:38:22.346Z,17.77
2023-08-08T23:41:24.520Z,17.74
2023-08-08T23:44:26.763Z,17.73
2023-08-08T23:47:29.763Z,17.72
2023-08-08T23:50:32.021Z,17.72
2023-08-08T23:53:34.439Z,17.68
2023-08-08T23:56:36.697Z,17.59
2023-08-08T23:59:38.947Z,17.49
